NCAR-RAP Real-Time Weather Data

Output produced by METARs form (23 June 2018  19:32 UTC)
found at http://weather.rap.ucar.edu/surface/
 
RJTY 231856Z AUTO 05004KT 10SM BKN130 18/16 A2970 RMK AO2 DZB42E51 SLP058 P0000 T01750163 FZRANO $
RJTY 231851Z AUTO 06004KT 10SM BKN130 17/16 A2970 RMK AO2 DZB42E51 SLP058 FZRANO $
RJTY 231842Z AUTO 00000KT 10SM -DZ BKN130 18/16 A2971 RMK AO2 DZB42 SLP060 FZRANO $
RJTY 231756Z AUTO 34004KT 10SM OVC140 18/16 A2970 RMK AO2 SLP057 T01780159 10186 20173 53000 FZRANO $
RJTY 231656Z AUTO 00000KT 10SM SCT130 18/17 A2969 RMK AO2 SLP053 T01790169 FZRANO $
RJTY 231556Z AUTO 00000KT 10SM SCT160 18/17 A2970 RMK AO2 SLP057 T01780170 FZRANO $
RJTY 231456Z AUTO 00000KT 10SM CLR 18/17 A2970 RMK AO2 SLP057 T01760168 402260175 50000 FZRANO $
RJTY 231356Z AUTO 24003KT 10SM CLR 18/17 A2970 RMK AO2 SLP057 T01750168 FZRANO $
RJTY 231256Z AUTO 21003KT 10SM CLR 18/17 A2970 RMK AO2 SLP057 T01800172 FZRANO $
RJTY 231156Z AUTO 26003KT 10SM SCT080 19/18 A2970 RMK AO2 SLP057 60038 T01870175 10216 20182 55002 FZRANO $
RJTY 231056Z AUTO 00000KT 10SM OVC085 18/17 A2969 RMK AO2 SLP054 T01820174 FZRANO $
RJTY 231011Z AUTO 23003KT 10SM SCT010 BKN080 19/18 A2969 RMK AO2 SLP053 FZRANO $
RJTY 230956Z AUTO 00000KT 10SM BKN010 BKN075 19/17 A2969 RMK AO2 RAE30 CIG 010V075 BKN010 V SCT SLP053 P0003 T01890174 FZRANO $
RJTY 230945Z AUTO 35003KT 10SM FEW009 SCT015 BKN075 19/18 A2970 RMK AO2 RAE30 SLP057 FZRANO $
RJTY 230930Z AUTO 01009KT 9SM FEW007 BKN016 19/18 A2970 RMK AO2 RAE30 CIG 006V017 BKN V OVC SLP057 FZRANO $
RJTY 230926Z AUTO 01009KT 7SM -RA SCT007 BKN015 OVC020 19/18 A2970 RMK AO2 CIG 006V017 SLP057 FZRANO $
RJTY 230911Z AUTO 03009KT 3SM RA BR BKN006 OVC017 19/18 A2970 RMK AO2 SLP058 FZRANO $
RJTY 230856Z AUTO 00000KT 2 1/2SM -RA BR BKN005 OVC010 19/18 A2970 RMK AO2 VIS 1 1/2V2 1/2 RAE12RAB16 CIG 005V010 SLP058 P0018 60035 T01860176 55007 FZRANO $
RJTY 230846Z AUTO 00000KT 1 5/8SM RA BR FEW003 OVC010 19/18 A2970 RMK AO2 VIS 1 5/8V2 3/4 RAE12RAB16 OVC V BKN SLP058 FZRANO $
RJTY 230831Z AUTO 26004KT 5SM RA BR BKN010 OVC036 19/18 A2971 RMK AO2 RAE12RAB16 CIG 007 RWY18 SLP061 FZRANO $
RJTY 230816Z AUTO 26005KT 6SM -RA BR SCT010 OVC036 19/17 A2970 RMK AO2 RAE12RAB16 SLP058 FZRANO $
RJTY 230812Z AUTO 26005KT 6SM BR SCT010 OVC038 19/17 A2970 RMK AO2 RAE12 SLP058 FZRANO $
RJTY 230756Z AUTO 23004KT 5SM -RA BR SCT010 OVC036 19/18 A2970 RMK AO2 RAE47RAB53 SLP058 P0013 T01920175 FZRANO $
RJTY 230753Z AUTO 23004KT 5SM -RA BR SCT010 OVC036 19/17 A2970 RMK AO2 RAE47RAB53 SLP058 FZRANO $
RJTY 230747Z AUTO 22004KT 5SM BR SCT010 BKN036 OVC050 19/17 A2970 RMK AO2 RAE47 SLP058 FZRANO $
RJTY 230746Z AUTO 21004KT 5SM -RA BR SCT010 BKN036 OVC050 20/17 A2970 RMK AO2 SLP057 FZRANO $
RJTY 230731Z AUTO 00000KT 2 3/4SM -RA BR SCT011 SCT026 OVC035 20/19 A2970 RMK AO2 SLP057 FZRANO $
RJTY 230730Z AUTO 00000KT 2 3/4SM -RA BR FEW012 SCT026 OVC035 21/19 A2970 RMK AO2 VIS 2 1/2V3 SLP057 FZRANO $
RJTY 230715Z AUTO 00000KT 2 1/2SM RA BR FEW012 21/19 A2970 RMK AO2 PRESFR SLP057 FZRANO $
RJTY 230700Z AUTO 00000KT 3SM -RA FEW010 OVC038 21/18 A2972 RMK AO2 SLP064 FZRANO $
RJTY 230656Z AUTO 00000KT 3SM -RA BKN035 OVC050 21/18 A2972 RMK AO2 VIS 2 1/2 RWY18 RAB0559E25DZB25E26RAB26E32RAB37 SLP064 P0004 T02080184 FZRANO $
RJTY 230637Z 19004KT 4SM -RA BR BKN033 21/19 A2971 RMK AO2A RAB0559E25DZB25E26RAB26E32RAB37 SLP060 FZRANO $
RJTY 230632Z 20004KT 5SM BR SCT034 21/19 A2971 RMK AO2A RAB0559E25DZB25E26RAB26E32 SLP060 FZRANO $
RJTY 230627Z 19005KT 5SM -RA BR FEW008 BKN020 21/19 A2971 RMK AO2A RAB0559E25DZB25E26RAB26 SLP060 FZRANO $
RJTY 230614Z AUTO 19004KT 5SM -RA BR SCT018 22/19 A2971 RMK AO2 RAB0559 SLP060 FZRANO $
RJTY 230559Z AUTO 21003KT 4SM -RA OVC024 22/19 A2972 RMK AO2 RAB59 SLP063 FZRANO $
RJTY 230556Z AUTO 22003KT 4SM HZ OVC026 22/19 A2973 RMK AO2 DZB01E02RAB02E47 SLP066 P0002 60002 T02160193 10226 20212 57012 FZRANO $
RJTY 230547Z AUTO 19003KT 4SM HZ OVC026 22/19 A2973 RMK AO2 DZB01E02RAB02E47 SLP066 FZRANO $
RJTY 230532Z AUTO 19005KT 5SM -RA BKN024 BKN070 22/19 A2974 RMK AO2 DZB01E02RAB02 SLP070 FZRANO $
RJTY 230502Z AUTO 19004KT 9SM -DZ FEW070 22/18 A2974 RMK AO2 DZB01 SLP070 FZRANO $
RJTY 230456Z AUTO 22004KT 9SM CLR 22/18 A2974 RMK AO2 DZB0356E0357RAB0357E17DZB17E25 SLP070 P0000 T02220180 FZRANO $
RJTY 230455Z AUTO 00000KT 9SM CLR 22/18 A2974 RMK AO2 DZB0356E0357RAB0357E17DZB17E25 SLP070 FZRANO $
RJTY 230425Z 09004KT 9SM BKN020 22/18 A2974 RMK AO2A DZB0356E0357RAB0357E17DZB17E25 PRESFR SLP070 FZRANO $
RJTY 230412Z 00000KT 10SM -RA BKN019 22/18 A2976 RMK AO2A DZB0356E0357RAB0357 BKN V SCT SLP077 FZRANO $
RJTY 230357Z 00000KT 10SM -DZ BKN019 BKN028 22/18 A2976 RMK AO2A DZB56 CIG 019V028 SLP077 FZRANO $
RJTY 230356Z 06003KT 10SM BKN019 BKN028 22/18 A2975 RMK AO2A RAB09E29DZB29E30 CIG 019V028 SLP073 P0000 T02180176 FZRANO $
RJTY 230345Z 00000KT 10SM BKN022 BKN028 22/18 A2975 RMK AO2A RAB09E29DZB29E30 PRESRR SLP073 FZRANO $
RJTY 230330Z 08006KT 9SM BKN018 BKN028 22/18 A2972 RMK AO2A RAB09E29DZB29E30 SLP063 FZRANO $
RJTY 230324Z AUTO 07008KT 9SM -RA FEW018 FEW028 22/18 A2971 RMK AO2 RAB09 PRESFR SLP060 FZRANO $
RJTY 230309Z COR 08009KT 9SM -RA BKN018 BKN027 22/18 A2974 RMK AO2 RAB09 PRESFR SLP070 FZRANO $ COR 0318
RJTY 230256Z 11004KT 8SM BKN025 22/18 A2976 RMK AO2A PRESFR SLP077 T02220184 55025 FZRANO $
RJTY 230156Z 00000KT 7SM SCT015 BKN020 22/18 A2983 RMK AO2A BKN V SCT SLP100 T02170181 FZRANO $
RJTY 230141Z 09003KT 6SM HZ SCT015 BKN024 22/18 A2982 RMK AO2A SLP097 FZRANO $
RJTY 230108Z 00000KT 6SM HZ BKN015 BKN050 22/18 A2982 RMK SLP096 FZRANO $
RJTY 230056Z AUTO 05003KT 6SM HZ SCT014 22/18 A2982 RMK AO2 SLP096 T02150183 FZRANO $
RJTY 230036Z 01003KT 6SM HZ BKN014 22/19 A2983 RMK BKN V SCT SLP100 FZRANO $
RJTY 230011Z AUTO 00000KT 6SM HZ SCT013 21/18 A2984 RMK AO2 SLP104 FZRANO $
RJTY 222356Z AUTO 00000KT 6SM HZ BKN013 21/18 A2984 RMK AO2 SLP104 T02130183 10213 20189 58006 FZRANO $
RJTY 222256Z 01005KT 5SM BR OVC012 21/18 A2986 RMK AO2A OVC V BKN SLP110 T02070183 FZRANO $
RJTY 222232Z 01006KT 6SM BR BKN012 20/18 A2987 RMK AO2A CIG 010V015 SLP113 FZRANO $
RJTY 222217Z 02006KT 5SM BR BKN010 BKN015 20/18 A2986 RMK AO2A CIG 010V015 BKN010 V SCT SLP111 FZRANO $
RJTY 222202Z 03005KT 6SM BR FEW010 BKN016 BKN025 20/18 A2986 RMK AO2A SLP110 FZRANO $
RJTY 222156Z 02006KT 6SM BR BKN016 BKN025 20/18 A2986 RMK AO2A SLP110 T02030182 FZRANO $
RJTY 222112Z 02006KT 6SM BR FEW009 BKN016 BKN025 20/18 A2986 RMK AO2A SLP110 FZRANO $
RJTY 222111Z 02006KT 6SM BR BKN016 BKN025 20/18 A2985 RMK AO2A SLP107 FZRANO $
RJTY 222056Z 01005KT 6SM BR BKN014 BKN020 20/18 A2986 RMK AO2A SLP110 T01970183 52004 FZRANO $
RJTY 222041Z AUTO 01006KT 5SM BR SCT013 19/18 A2985 RMK AO2 SLP107 FZRANO $
RJTY 222026Z AUTO 01008KT 6SM BR BKN013 19/18 A2985 RMK AO2 SLP107 FZRANO $
RJTY 222011Z AUTO 01006KT 5SM BR SCT011 19/18 A2985 RMK AO2 SLP107 FZRANO $
RJTY 221956Z AUTO 01006KT 6SM BR BKN009 19/18 A2985 RMK AO2 BKN V OVC SLP107 T01940184 FZRANO $
RJTY 221911Z AUTO 02006KT 5SM BR BKN008 19/18 A2985 RMK AO2 CIG 007 RWY18 SLP106 FZRANO $
RJTY 221856Z AUTO 02004KT 5SM BR SCT007 19/18 A2985 RMK AO2 SLP106 T01890181 FZRANO $
RJTY 221849Z AUTO 02006KT 5SM BR FEW006 19/18 A2984 RMK AO2 SLP103 FZRANO $
RJTY 221756Z AUTO 02006KT 6SM BR CLR 19/18 A2984 RMK AO2 SLPNO T01930183 10220 20193 50000 FZRANO $
RJTY 221656Z AUTO 36007KT 6SM BR CLR 20/19 A2984 RMK AO2 SLP102 T02010187 FZRANO $
RJTY 221556Z AUTO 01006KT 10SM CLR 20/18 A2985 RMK AO2 SLP105 T01980177 FZRANO $
RJTY 221456Z AUTO 36007KT 10SM CLR 20/17 A2984 RMK AO2 SLP103 T01980174 402840171 50003 FZRANO $
RJTY 221356Z AUTO 00000KT 10SM CLR 21/18 A2984 RMK AO2 SLP103 T02100180 FZRANO $
RJTY 221256Z AUTO 00000KT 10SM CLR 21/18 A2985 RMK AO2 SLP106 T02140176 FZRANO $
RJTY 221156Z AUTO 19004KT 10SM CLR 21/17 A2983 RMK AO2 SLP099 T02130167 10270 20212 52015 FZRANO $
RJTY 221056Z AUTO 20005KT 10SM CLR 22/18 A2982 RMK AO2 SLP096 T02240175 FZRANO $
RJTY 220956Z AUTO 20007KT 10SM CLR 23/17 A2980 RMK AO2 SLP089 T02330170 FZRANO $
RJTY 220856Z AUTO 19007KT 10SM CLR 25/17 A2979 RMK AO2 SLP086 T02480167 FZRANO $
RJTY 220756Z AUTO 22010KT 10SM CLR 26/18 A2978 RMK AO2 SLP083 T02590183 FZRANO $
RJTY 220656Z AUTO 20012KT 10SM FEW035 27/19 A2978 RMK AO2 SLP083 T02680189 FZRANO $
RJTY 220556Z AUTO 18011G17KT 10SM CLR 27/19 A2978 RMK AO2 SLP082 T02730186 10284 20240 56009 FZRANO $
RJTY 220456Z AUTO 22006KT 10SM CLR 28/16 A2978 RMK AO2 SLP082 T02770157 FZRANO $
RJTY 220356Z AUTO 14005KT 10SM FEW170 27/14 A2979 RMK AO2 SLP086 T02690143 FZRANO $
RJTY 220256Z AUTO 15003KT 10SM FEW160 SCT200 27/13 A2981 RMK AO2 SLP092 T02650132 50000 FZRANO $
RJTY 220156Z AUTO 10003KT 10SM CLR 26/14 A2982 RMK AO2 SLP096 T02550140 FZRANO $
RJTY 220056Z AUTO 07005KT 10SM CLR 25/15 A2981 RMK AO2 SLP092 T02490152 FZRANO $
RJTY 212356Z AUTO 08006KT 10SM CLR 24/15 A2981 RMK AO2 DZB21E25 SLP092 P0000 60000 T02420154 10245 20171 50003 FZRANO $
RJTY 212256Z AUTO 05007KT 10SM CLR 24/16 A2980 RMK AO2 SLP089 T02390159 FZRANO $
RJTY 212156Z AUTO 01005KT 10SM CLR 22/17 A2981 RMK AO2 SLP093 T02230165 FZRANO $
RJTY 212056Z AUTO 00000KT 10SM CLR 20/18 A2980 RMK AO2 SLP090 T01950176 52014 FZRANO $
RJTY 211956Z AUTO 00000KT 10SM CLR 18/18 A2979 RMK AO2 SLP087 T01830178 FZRANO $
RJTY 211856Z AUTO 00000KT 9SM CLR 18/18 A2976 RMK AO2 SLP077 T01780176 FZRANO $
RJTY 211756Z AUTO 29003KT 10SM CLR 19/19 A2975 RMK AO2 VIS 1 1/4 RWY18 SLP073 T01900188 10223 20184 53008 FZRANO $
RJTY 211656Z AUTO 00000KT 10SM CLR 19/19 A2974 RMK AO2 SLP070 T01930188 FZRANO $
RJTY 211556Z AUTO 00000KT 8SM CLR 20/20 A2972 RMK AO2 SLP062 T01980195 FZRANO $
RJTY 211456Z AUTO 00000KT 5SM BR CLR 20/20 A2973 RMK AO2 SLP066 T02000195 402370189 52007 FZRANO $
RJTY 211356Z AUTO 33003KT 10SM CLR 20/19 A2972 RMK AO2 SLP063 T02030191 FZRANO $
RJTY 211256Z AUTO 00000KT 10SM FEW022 SCT027 21/19 A2971 RMK AO2 SLP059 T02100193 FZRANO $
RJTY 211156Z AUTO 02004KT 10SM BKN020 OVC027 22/20 A2971 RMK AO2 BKN V OVC SLP060 T02220197 10229 20221 52024 FZRANO $
RJTY 211056Z AUTO 00000KT 10SM OVC015 22/20 A2968 RMK AO2 SLP049 T02240197 FZRANO $
RJTY 210956Z 08003KT 10SM OVC016 22/20 A2967 RMK AO2A CIG 015 RWY18 SLP046 T02240197 FZRANO $
RJTY 210926Z 07004KT 10SM BKN018 22/20 A2966 RMK AO2A SLP043 FZRANO $
RJTY 210856Z COR AUTO 08004KT 10SM SCT014 23/20 A2964 RMK AO2 SLP036 T02270198 50005 FZRANO $ COR 0908
RJTY 210841Z AUTO 00000KT 10SM SCT014 23/20 A2964 RMK AO2 SLP036 FZRANO $
RJTY 210756Z AUTO 00000KT 10SM OVC014 23/20 A2962 RMK AO2 SLP029 T02280195 FZRANO $